createdAt,value
2023-02-11T00:00:30.866Z,6.05
2023-02-11T00:02:33.362Z,6.05
2023-02-11T00:04:34.827Z,6.05
2023-02-11T00:06:36.599Z,6.06
2023-02-11T00:08:39.085Z,6.04
2023-02-11T00:10:40.509Z,6.08
2023-02-11T00:12:43.146Z,6.06
2023-02-11T00:14:44.569Z,6.08
2023-02-11T00:16:46.053Z,6.09
2023-02-11T00:18:47.812Z,6.09
2023-02-11T00:20:49.232Z,6.11
2023-02-11T00:22:50.662Z,6.12
2023-02-11T00:24:52.130Z,6.14
2023-02-11T00:26:53.625Z,6.13
2023-02-11T00:28:55.072Z,6.15
2023-02-11T00:30:57.754Z,6.14
2023-02-11T00:32:59.358Z,6.16
2023-02-11T00:35:00.831Z,6.17
2023-02-11T00:37:03.017Z,6.17
2023-02-11T00:39:04.882Z,6.17
2023-02-11T00:41:06.401Z,6.19
2023-02-11T00:43:07.876Z,6.20
2023-02-11T00:45:09.923Z,6.19
2023-02-11T00:47:11.374Z,6.19
2023-02-11T00:49:13.356Z,6.18
2023-02-11T00:51:15.314Z,6.18
2023-02-11T00:53:16.752Z,6.18
2023-02-11T00:55:18.353Z,6.18
2023-02-11T00:57:19.794Z,6.21
2023-02-11T00:59:21.244Z,6.22
2023-02-11T01:01:22.780Z,6.22
2023-02-11T01:03:24.472Z,6.22
2023-02-11T01:05:25.993Z,6.20
2023-02-11T01:07:28.683Z,6.18
2023-02-11T01:09:30.125Z,6.19
2023-02-11T01:11:31.557Z,6.18
2023-02-11T01:13:37.291Z,6.17
2023-02-11T01:15:38.791Z,6.17
2023-02-11T01:17:40.343Z,6.17
2023-02-11T01:19:42.310Z,6.16
2023-02-11T01:21:43.746Z,6.16
2023-02-11T01:23:45.183Z,6.17
2023-02-11T01:25:47.132Z,6.17
2023-02-11T01:27:48.575Z,6.18
2023-02-11T01:29:50.008Z,6.20
2023-02-11T01:31:52.459Z,6.19
2023-02-11T01:33:53.923Z,6.18
2023-02-11T01:35:55.474Z,6.20
2023-02-11T01:37:56.888Z,6.23
2023-02-11T01:39:58.290Z,6.23
2023-02-11T01:41:59.756Z,6.23
2023-02-11T01:44:37.396Z,6.25
2023-02-11T01:46:38.960Z,6.28
2023-02-11T01:48:47.666Z,6.28
2023-02-11T01:50:52.959Z,6.31
2023-02-11T01:53:14.859Z,6.28
2023-02-11T01:55:34.929Z,6.29
2023-02-11T01:57:40.589Z,6.28
2023-02-11T01:59:51.105Z,6.27
2023-02-11T02:01:58.931Z,6.30
2023-02-11T02:04:03.152Z,6.31
2023-02-11T02:06:13.120Z,6.32
2023-02-11T02:08:21.638Z,6.35
2023-02-11T02:10:25.705Z,6.35
2023-02-11T02:12:27.451Z,6.36
2023-02-11T02:14:28.996Z,6.33
2023-02-11T02:16:34.777Z,6.34
2023-02-11T02:18:54.268Z,6.34
2023-02-11T02:21:33.346Z,6.34
2023-02-11T02:23:56.124Z,6.34
2023-02-11T02:26:11.815Z,6.34
2023-02-11T02:28:22.467Z,6.35
2023-02-11T02:30:27.068Z,6.35
2023-02-11T02:32:28.479Z,6.35
2023-02-11T02:34:46.650Z,6.36
2023-02-11T02:36:58.966Z,6.36
2023-02-11T02:39:09.135Z,6.36
2023-02-11T02:41:15.657Z,6.35
2023-02-11T02:43:18.501Z,6.35
2023-02-11T02:45:20.269Z,6.35
2023-02-11T02:47:21.825Z,6.37
2023-02-11T02:49:23.324Z,6.38
2023-02-11T02:51:39.726Z,6.37
2023-02-11T02:54:08.427Z,6.37
2023-02-11T02:56:20.640Z,6.37
2023-02-11T02:58:31.101Z,6.39
2023-02-11T03:00:42.362Z,6.39
2023-02-11T03:02:50.070Z,6.39
2023-02-11T03:05:06.920Z,6.39
2023-02-11T03:07:33.094Z,6.40
2023-02-11T03:09:47.056Z,6.39
2023-02-11T03:11:48.891Z,6.39
2023-02-11T03:13:52.104Z,6.40
2023-02-11T03:15:57.475Z,6.40
2023-02-11T03:18:01.856Z,6.39
2023-02-11T03:20:06.346Z,6.41
2023-02-11T03:22:13.662Z,6.44
2023-02-11T03:24:21.825Z,6.45
2023-02-11T03:26:39.479Z,6.46
2023-02-11T03:28:50.736Z,6.46
2023-02-11T03:31:09.871Z,6.46
2023-02-11T03:33:18.601Z,6.44
2023-02-11T03:35:29.104Z,6.43
2023-02-11T03:37:40.931Z,6.48
2023-02-11T03:39:57.456Z,6.48
2023-02-11T03:42:00.719Z,6.51
2023-02-11T03:44:03.523Z,6.54
2023-02-11T03:46:06.134Z,6.54
2023-02-11T03:48:14.561Z,6.55
2023-02-11T03:50:18.052Z,6.57
2023-02-11T03:52:21.899Z,6.59
2023-02-11T03:54:29.162Z,6.61
2023-02-11T03:56:36.292Z,6.61
2023-02-11T03:58:37.767Z,6.65
2023-02-11T04:00:41.163Z,6.64
2023-02-11T04:02:43.500Z,6.64
2023-02-11T04:04:45.579Z,6.66
2023-02-11T04:06:47.089Z,6.66
2023-02-11T04:08:48.576Z,6.66
2023-02-11T04:10:50.024Z,6.68
2023-02-11T04:12:51.565Z,6.69
2023-02-11T04:14:53.014Z,6.70
2023-02-11T04:16:54.621Z,6.74
2023-02-11T04:18:56.294Z,6.72
2023-02-11T04:20:57.751Z,6.72
2023-02-11T04:22:59.280Z,6.72
2023-02-11T04:25:00.804Z,6.74
2023-02-11T04:27:02.353Z,6.75
2023-02-11T04:29:04.132Z,6.74
2023-02-11T04:31:06.781Z,6.75
2023-02-11T04:33:08.294Z,6.74
2023-02-11T04:35:09.778Z,6.75
2023-02-11T04:37:11.261Z,6.76
2023-02-11T04:39:12.979Z,6.75
2023-02-11T04:41:14.527Z,6.75
2023-02-11T04:43:16.016Z,6.75
2023-02-11T04:45:17.609Z,6.76
2023-02-11T04:47:19.074Z,6.76
2023-02-11T04:49:20.581Z,6.73
2023-02-11T04:51:22.092Z,6.77
2023-02-11T04:53:23.621Z,6.76
2023-02-11T04:55:25.096Z,6.76
2023-02-11T04:57:26.566Z,6.78
2023-02-11T04:59:29.316Z,6.77
2023-02-11T05:01:30.927Z,6.78
2023-02-11T05:03:32.423Z,6.79
2023-02-11T05:05:33.897Z,6.78
2023-02-11T05:07:35.443Z,6.77
2023-02-11T05:09:36.946Z,6.78
2023-02-11T05:11:39.456Z,6.79
2023-02-11T05:13:40.938Z,6.80
2023-02-11T05:15:42.506Z,6.79
2023-02-11T05:17:44.028Z,6.80
2023-02-11T05:19:45.507Z,6.79
2023-02-11T05:22:01.378Z,6.77
2023-02-11T05:24:04.353Z,6.77
2023-02-11T05:26:06.354Z,6.76
2023-02-11T05:28:07.944Z,6.77
2023-02-11T05:30:10.744Z,6.76
2023-02-11T05:32:12.391Z,6.78
2023-02-11T05:34:13.857Z,6.79
2023-02-11T05:36:16.756Z,6.83
2023-02-11T05:38:18.328Z,6.82
2023-02-11T05:40:19.893Z,6.82
2023-02-11T05:42:21.347Z,6.82
2023-02-11T05:44:22.908Z,6.83
2023-02-11T05:46:24.389Z,6.82
2023-02-11T05:48:25.907Z,6.82
2023-02-11T05:50:27.428Z,6.83
2023-02-11T05:52:28.896Z,6.83
2023-02-11T05:54:30.437Z,6.83
2023-02-11T05:56:31.900Z,6.83
2023-02-11T05:58:33.369Z,6.83
2023-02-11T06:00:35.414Z,6.85
2023-02-11T06:02:36.940Z,6.85
2023-02-11T06:04:38.700Z,6.84
2023-02-11T06:06:40.158Z,6.83
2023-02-11T06:08:41.684Z,6.82
2023-02-11T06:10:45.667Z,6.81
2023-02-11T06:12:47.185Z,6.80
2023-02-11T06:14:48.734Z,6.77
2023-02-11T06:16:50.257Z,6.75
2023-02-11T06:18:51.738Z,6.74
2023-02-11T06:20:53.387Z,6.71
2023-02-11T06:22:54.830Z,6.69
2023-02-11T06:25:01.850Z,6.69
2023-02-11T06:27:04.936Z,6.72
2023-02-11T06:29:06.473Z,6.73
2023-02-11T06:31:09.656Z,6.72
2023-02-11T06:33:11.287Z,6.72
2023-02-11T06:35:14.549Z,6.74
2023-02-11T06:37:16.125Z,6.73
2023-02-11T06:39:17.633Z,6.72
2023-02-11T06:41:22.967Z,6.71
2023-02-11T06:43:24.453Z,6.71
2023-02-11T06:45:26.072Z,6.71
2023-02-11T06:47:27.526Z,6.72
2023-02-11T06:49:29.061Z,6.71
2023-02-11T06:51:30.498Z,6.71
2023-02-11T06:53:35.519Z,6.70
2023-02-11T06:55:37.029Z,6.73
2023-02-11T06:57:38.526Z,6.75
2023-02-11T06:59:40.009Z,6.72
2023-02-11T07:01:41.481Z,6.74
2023-02-11T07:03:44.513Z,6.72
2023-02-11T07:05:46.032Z,6.72
2023-02-11T07:07:47.490Z,6.74
2023-02-11T07:09:48.946Z,6.76
2023-02-11T07:11:50.405Z,6.77
2023-02-11T07:13:53.032Z,6.77
2023-02-11T07:15:54.530Z,6.78
2023-02-11T07:17:56.009Z,6.80
2023-02-11T07:19:58.290Z,6.84
2023-02-11T07:21:59.769Z,6.86
2023-02-11T07:24:01.983Z,6.88
2023-02-11T07:26:15.595Z,6.90
2023-02-11T07:28:17.072Z,6.93
2023-02-11T07:30:18.579Z,6.97
2023-02-11T07:32:20.146Z,7.00
2023-02-11T07:34:21.671Z,7.02
2023-02-11T07:36:23.479Z,7.04
2023-02-11T07:38:24.936Z,7.04
2023-02-11T07:40:26.446Z,7.07
2023-02-11T07:42:27.900Z,7.10
2023-02-11T07:44:29.434Z,7.10
2023-02-11T07:46:31.076Z,7.12
2023-02-11T07:48:32.999Z,7.16
2023-02-11T07:50:34.510Z,7.16
2023-02-11T07:52:35.989Z,7.18
2023-02-11T07:54:37.483Z,7.19
2023-02-11T07:56:38.975Z,7.19
2023-02-11T07:58:43.775Z,7.21
2023-02-11T08:00:46.041Z,7.23
2023-02-11T08:02:47.658Z,7.24
2023-02-11T08:04:49.248Z,7.27
2023-02-11T08:06:52.809Z,7.27
2023-02-11T08:08:54.654Z,7.29
2023-02-11T08:10:56.355Z,7.30
2023-02-11T08:12:57.831Z,7.31
2023-02-11T08:14:59.591Z,7.31
2023-02-11T08:17:01.068Z,7.32
2023-02-11T08:19:05.851Z,7.34
2023-02-11T08:21:09.439Z,7.37
2023-02-11T08:23:10.886Z,7.40
2023-02-11T08:25:12.370Z,7.43
2023-02-11T08:27:13.831Z,7.44
2023-02-11T08:29:17.189Z,7.47
2023-02-11T08:31:21.738Z,7.49
2023-02-11T08:33:23.314Z,7.50
2023-02-11T08:35:26.116Z,7.51
2023-02-11T08:37:27.614Z,7.54
2023-02-11T08:39:29.077Z,7.54
2023-02-11T08:41:31.660Z,7.55
2023-02-11T08:43:33.462Z,7.57
2023-02-11T08:45:34.996Z,7.56
2023-02-11T08:47:37.118Z,7.59
2023-02-11T08:49:38.872Z,7.59
2023-02-11T08:51:40.525Z,7.60
2023-02-11T08:53:42.058Z,7.61
2023-02-11T08:55:53.636Z,7.60
2023-02-11T08:57:55.126Z,7.62
2023-02-11T08:59:56.792Z,7.65
2023-02-11T09:01:58.301Z,7.66
2023-02-11T09:03:59.793Z,7.65
2023-02-11T09:06:06.144Z,7.68
2023-02-11T09:08:07.703Z,7.68
2023-02-11T09:10:09.529Z,7.69
2023-02-11T09:12:11.016Z,7.68
2023-02-11T09:14:19.360Z,7.72
2023-02-11T09:16:24.032Z,7.73
2023-02-11T09:18:25.932Z,7.74
2023-02-11T09:20:27.840Z,7.76
2023-02-11T09:22:29.337Z,7.76
2023-02-11T09:24:30.800Z,7.76
2023-02-11T09:26:34.595Z,7.77
2023-02-11T09:28:36.270Z,7.79
2023-02-11T09:30:39.002Z,7.80
2023-02-11T09:32:40.556Z,7.82
2023-02-11T09:34:42.034Z,7.84
2023-02-11T09:36:43.508Z,7.84
2023-02-11T09:38:45.761Z,7.87
2023-02-11T09:40:47.282Z,7.85
2023-02-11T09:43:17.406Z,7.86
2023-02-11T09:45:25.256Z,7.84
2023-02-11T09:47:39.167Z,7.85
2023-02-11T09:49:58.819Z,7.84
2023-02-11T09:52:30.664Z,7.84
2023-02-11T09:54:57.598Z,7.86
2023-02-11T09:56:59.142Z,7.88
2023-02-11T09:59:00.598Z,7.88
2023-02-11T10:01:24.128Z,7.91
2023-02-11T10:03:47.333Z,7.93
2023-02-11T10:05:48.711Z,7.95
2023-02-11T10:08:09.850Z,7.95
2023-02-11T10:10:39.354Z,7.94
2023-02-11T10:13:01.987Z,7.97
2023-02-11T10:15:12.725Z,7.98
2023-02-11T10:17:40.196Z,8.01
2023-02-11T10:19:48.538Z,8.02
2023-02-11T10:21:56.273Z,8.02
2023-02-11T10:24:02.928Z,8.04
2023-02-11T10:26:17.982Z,8.02
2023-02-11T10:28:24.655Z,8.02
2023-02-11T10:30:41.098Z,8.05
2023-02-11T10:32:51.439Z,8.04
2023-02-11T10:34:58.460Z,8.06
2023-02-11T10:37:00.358Z,8.04
2023-02-11T10:39:11.929Z,8.05
2023-02-11T10:41:19.084Z,8.07
2023-02-11T10:43:26.444Z,8.06
2023-02-11T10:45:36.080Z,8.05
2023-02-11T10:47:39.564Z,8.05
2023-02-11T10:49:42.215Z,8.04
2023-02-11T10:51:43.690Z,8.03
2023-02-11T10:53:46.479Z,8.02
2023-02-11T10:55:57.260Z,8.03
2023-02-11T10:58:01.630Z,8.05
2023-02-11T11:00:26.295Z,8.07
2023-02-11T11:02:35.993Z,8.06
2023-02-11T11:04:42.559Z,8.08
2023-02-11T11:06:44.300Z,8.08
2023-02-11T11:08:48.155Z,8.11
2023-02-11T11:11:06.537Z,8.12
2023-02-11T11:13:27.544Z,8.13
2023-02-11T11:15:31.999Z,8.14
2023-02-11T11:17:33.551Z,8.17
2023-02-11T11:19:36.764Z,8.19
2023-02-11T11:21:40.950Z,8.21
2023-02-11T11:23:50.133Z,8.22
2023-02-11T11:26:03.564Z,8.24
2023-02-11T11:28:05.316Z,8.26
2023-02-11T11:30:16.904Z,8.25
2023-02-11T11:32:27.064Z,8.26
2023-02-11T11:34:32.286Z,8.29
2023-02-11T11:36:39.657Z,8.31
2023-02-11T11:38:49.067Z,8.31
2023-02-11T11:41:20.936Z,8.31
2023-02-11T11:43:23.524Z,8.29
2023-02-11T11:45:27.062Z,8.28
2023-02-11T11:47:47.294Z,8.29
2023-02-11T11:49:58.316Z,8.28
2023-02-11T11:52:33.236Z,8.29
2023-02-11T11:54:36.807Z,8.28
2023-02-11T11:56:50.013Z,8.27
2023-02-11T11:58:51.912Z,8.28
2023-02-11T12:01:24.212Z,8.30
2023-02-11T12:04:04.269Z,8.33
2023-02-11T12:06:23.992Z,8.34
2023-02-11T12:09:04.375Z,8.37
2023-02-11T12:11:33.355Z,8.38
2023-02-11T12:13:49.829Z,8.38
2023-02-11T12:16:02.509Z,8.39
2023-02-11T12:18:44.344Z,8.40
2023-02-11T12:21:10.153Z,8.42
2023-02-11T12:23:23.855Z,8.43
2023-02-11T12:25:28.354Z,8.45
2023-02-11T12:27:45.202Z,8.48
2023-02-11T12:30:11.417Z,8.56
2023-02-11T12:32:22.345Z,8.61
2023-02-11T12:34:57.987Z,8.68
2023-02-11T12:37:11.687Z,8.74
2023-02-11T12:39:38.814Z,8.82
2023-02-11T12:42:11.264Z,8.88
2023-02-11T12:45:06.888Z,8.93
2023-02-11T12:47:47.363Z,8.95
2023-02-11T12:50:10.487Z,8.94
2023-02-11T12:52:32.285Z,8.94
2023-02-11T12:54:47.336Z,8.95
2023-02-11T12:56:52.247Z,8.97
2023-02-11T12:58:58.303Z,8.99
2023-02-11T13:01:12.532Z,9.02
2023-02-11T13:03:31.894Z,9.08
2023-02-11T13:06:02.009Z,9.11
2023-02-11T13:08:19.876Z,9.12
2023-02-11T13:10:30.084Z,9.13
2023-02-11T13:12:51.932Z,9.13
2023-02-11T13:14:59.212Z,9.12
2023-02-11T13:17:03.892Z,9.11
2023-02-11T13:19:33.210Z,9.13
2023-02-11T13:21:58.110Z,9.13
2023-02-11T13:24:16.884Z,9.15
2023-02-11T13:26:54.091Z,9.12
2023-02-11T13:29:10.266Z,9.11
2023-02-11T13:31:13.097Z,9.09
2023-02-11T13:33:30.731Z,9.10
2023-02-11T13:35:33.830Z,9.07
2023-02-11T13:37:39.731Z,9.07
2023-02-11T13:39:41.269Z,9.07
2023-02-11T13:41:45.081Z,9.08
2023-02-11T13:44:19.307Z,9.10
2023-02-11T13:46:21.115Z,9.10
2023-02-11T13:48:31.651Z,9.10
2023-02-11T13:50:38.921Z,9.13
2023-02-11T13:52:42.694Z,9.18
2023-02-11T13:54:50.993Z,9.21
2023-02-11T13:57:20.448Z,9.23
2023-02-11T13:59:24.952Z,9.23
2023-02-11T14:02:11.318Z,9.21
2023-02-11T14:04:40.928Z,9.18
2023-02-11T14:07:40.756Z,9.16
2023-02-11T14:09:42.329Z,9.15
2023-02-11T14:11:57.558Z,9.15
2023-02-11T14:14:24.552Z,9.14
2023-02-11T14:16:37.460Z,9.13
2023-02-11T14:18:45.632Z,9.11
2023-02-11T14:20:47.963Z,9.13
2023-02-11T14:22:51.070Z,9.15
2023-02-11T14:24:54.049Z,9.16
2023-02-11T14:27:04.201Z,9.13
2023-02-11T14:29:19.808Z,9.15
2023-02-11T14:31:26.468Z,9.13
2023-02-11T14:33:53.110Z,9.12
2023-02-11T14:36:18.416Z,9.11
2023-02-11T14:38:30.547Z,9.11
2023-02-11T14:40:39.437Z,9.09
2023-02-11T14:42:41.133Z,9.08
2023-02-11T14:44:42.751Z,9.09
2023-02-11T14:46:47.253Z,9.10
2023-02-11T14:48:55.342Z,9.12
2023-02-11T14:51:09.503Z,9.14
2023-02-11T14:53:17.421Z,9.14
2023-02-11T14:55:38.078Z,9.13
2023-02-11T14:57:39.597Z,9.17
2023-02-11T14:59:59.335Z,9.19
2023-02-11T15:02:00.911Z,9.19
2023-02-11T15:04:05.366Z,9.22
2023-02-11T15:06:38.200Z,9.21
2023-02-11T15:08:45.756Z,9.24
2023-02-11T15:10:47.455Z,9.26
2023-02-11T15:12:49.961Z,9.28
2023-02-11T15:14:57.782Z,9.27
2023-02-11T15:17:09.240Z,9.25
2023-02-11T15:19:34.258Z,9.22
2023-02-11T15:21:36.744Z,9.20
2023-02-11T15:23:38.930Z,9.20
2023-02-11T15:25:51.170Z,9.20
2023-02-11T15:27:56.682Z,9.21
2023-02-11T15:29:58.136Z,9.18
2023-02-11T15:32:12.266Z,9.18
2023-02-11T15:34:13.852Z,9.17
2023-02-11T15:36:16.866Z,9.15
2023-02-11T15:38:18.441Z,9.10
2023-02-11T15:40:24.318Z,9.09
2023-02-11T15:42:28.752Z,9.06
2023-02-11T15:44:32.655Z,9.00
2023-02-11T15:46:39.741Z,8.95
2023-02-11T15:48:48.592Z,8.91
2023-02-11T15:50:51.574Z,8.85
2023-02-11T15:52:55.482Z,8.82
2023-02-11T15:55:01.582Z,8.78
2023-02-11T15:57:07.835Z,8.78
2023-02-11T15:59:26.806Z,8.73
2023-02-11T16:01:34.479Z,8.72
2023-02-11T16:03:36.255Z,8.71
2023-02-11T16:05:38.174Z,8.69
2023-02-11T16:07:49.827Z,8.68
2023-02-11T16:09:58.290Z,8.66
2023-02-11T16:12:20.544Z,8.64
2023-02-11T16:14:27.879Z,8.64
2023-02-11T16:16:34.752Z,8.65
2023-02-11T16:19:01.990Z,8.66
2023-02-11T16:21:12.980Z,8.67
2023-02-11T16:23:22.969Z,8.69
2023-02-11T16:25:24.573Z,8.69
2023-02-11T16:27:39.635Z,8.69
2023-02-11T16:29:46.830Z,8.69
2023-02-11T16:31:50.270Z,8.70
2023-02-11T16:33:52.091Z,8.72
2023-02-11T16:35:53.608Z,8.70
2023-02-11T16:37:55.530Z,8.72
2023-02-11T16:39:58.234Z,8.71
2023-02-11T16:42:00.388Z,8.72
2023-02-11T16:44:01.913Z,8.71
2023-02-11T16:46:04.426Z,8.72
2023-02-11T16:48:08.484Z,8.70
2023-02-11T16:50:19.049Z,8.70
2023-02-11T16:52:21.910Z,8.68
2023-02-11T16:54:23.475Z,8.71
2023-02-11T16:56:24.932Z,8.70
2023-02-11T16:58:26.399Z,8.71
2023-02-11T17:00:28.257Z,8.68
2023-02-11T17:02:33.698Z,8.69
2023-02-11T17:04:35.194Z,8.66
2023-02-11T17:06:36.763Z,8.65
2023-02-11T17:08:38.540Z,8.65
2023-02-11T17:10:40.104Z,8.63
2023-02-11T17:12:41.596Z,8.65
2023-02-11T17:14:43.756Z,8.65
2023-02-11T17:16:48.171Z,8.65
2023-02-11T17:18:49.724Z,8.62
2023-02-11T17:20:51.217Z,8.59
2023-02-11T17:22:52.710Z,8.61
2023-02-11T17:24:57.008Z,8.62
2023-02-11T17:26:58.856Z,8.61
2023-02-11T17:29:00.321Z,8.63
2023-02-11T17:31:07.065Z,8.62
2023-02-11T17:33:09.567Z,8.63
2023-02-11T17:35:11.096Z,8.63
2023-02-11T17:37:12.590Z,8.61
2023-02-11T17:39:14.179Z,8.60
2023-02-11T17:41:15.664Z,8.59
2023-02-11T17:43:17.114Z,8.61
2023-02-11T17:45:21.182Z,8.61
2023-02-11T17:47:24.449Z,8.61
2023-02-11T17:49:26.186Z,8.59
2023-02-11T17:51:31.242Z,8.62
2023-02-11T17:53:32.714Z,8.60
2023-02-11T17:55:34.876Z,8.60
2023-02-11T17:57:37.155Z,8.59
2023-02-11T17:59:39.646Z,8.57
2023-02-11T18:01:42.575Z,8.55
2023-02-11T18:03:44.128Z,8.53
2023-02-11T18:05:45.715Z,8.53
2023-02-11T18:07:48.440Z,8.53
2023-02-11T18:09:49.911Z,8.54
2023-02-11T18:11:52.667Z,8.53
2023-02-11T18:13:56.791Z,8.54
2023-02-11T18:16:05.939Z,8.55
2023-02-11T18:18:07.567Z,8.53
2023-02-11T18:20:09.578Z,8.49
2023-02-11T18:22:11.510Z,8.52
2023-02-11T18:24:13.046Z,8.50
2023-02-11T18:26:16.700Z,8.49
2023-02-11T18:28:18.288Z,8.52
2023-02-11T18:30:20.586Z,8.50
2023-02-11T18:32:22.084Z,8.50
2023-02-11T18:34:24.307Z,8.49
2023-02-11T18:36:25.862Z,8.47
2023-02-11T18:38:27.354Z,8.47
2023-02-11T18:40:28.912Z,8.45
2023-02-11T18:42:30.466Z,8.43
2023-02-11T18:44:31.997Z,8.40
2023-02-11T18:46:33.780Z,8.42
2023-02-11T18:48:35.517Z,8.42
2023-02-11T18:50:37.261Z,8.40
2023-02-11T18:52:38.792Z,8.39
2023-02-11T18:54:40.256Z,8.39
2023-02-11T18:56:41.832Z,8.37
2023-02-11T18:58:43.404Z,8.38
2023-02-11T19:00:46.822Z,8.37
2023-02-11T19:02:48.370Z,8.35
2023-02-11T19:04:49.985Z,8.36
2023-02-11T19:06:51.568Z,8.37
2023-02-11T19:08:56.338Z,8.36
2023-02-11T19:10:59.007Z,8.36
2023-02-11T19:13:00.458Z,8.34
2023-02-11T19:15:02.012Z,8.33
2023-02-11T19:17:06.356Z,8.35
2023-02-11T19:19:08.474Z,8.32
2023-02-11T19:21:11.822Z,8.32
2023-02-11T19:23:13.325Z,8.30
2023-02-11T19:25:14.873Z,8.30
2023-02-11T19:27:16.535Z,8.31
2023-02-11T19:29:18.363Z,8.30
2023-02-11T19:31:20.111Z,8.27
2023-02-11T19:33:21.627Z,8.27
2023-02-11T19:35:24.186Z,8.27
2023-02-11T19:37:25.679Z,8.26
2023-02-11T19:39:27.453Z,8.27
2023-02-11T19:41:30.175Z,8.26
2023-02-11T19:43:31.665Z,8.27
2023-02-11T19:45:33.147Z,8.26
2023-02-11T19:47:35.079Z,8.26
2023-02-11T19:49:36.576Z,8.25
2023-02-11T19:51:39.322Z,8.25
2023-02-11T19:53:41.236Z,8.23
2023-02-11T19:55:42.709Z,8.23
2023-02-11T19:57:44.308Z,8.20
2023-02-11T19:59:45.791Z,8.22
2023-02-11T20:01:49.191Z,8.22
2023-02-11T20:03:52.782Z,8.22
2023-02-11T20:05:54.548Z,8.20
2023-02-11T20:07:56.222Z,8.19
2023-02-11T20:09:57.736Z,8.17
2023-02-11T20:11:59.541Z,8.19
2023-02-11T20:14:01.176Z,8.17
2023-02-11T20:16:06.776Z,8.17
2023-02-11T20:18:08.298Z,8.16
2023-02-11T20:20:10.511Z,8.20
2023-02-11T20:22:11.996Z,8.17
2023-02-11T20:24:13.709Z,8.17
2023-02-11T20:26:22.666Z,8.17
2023-02-11T20:28:24.177Z,8.16
2023-02-11T20:30:25.723Z,8.17
2023-02-11T20:32:27.227Z,8.15
2023-02-11T20:34:29.515Z,8.14
2023-02-11T20:36:35.485Z,8.10
2023-02-11T20:38:37.142Z,8.10
2023-02-11T20:40:38.620Z,8.08
2023-02-11T20:42:40.309Z,8.06
2023-02-11T20:44:41.781Z,8.06
2023-02-11T20:46:48.231Z,8.01
2023-02-11T20:48:50.997Z,7.99
2023-02-11T20:50:52.478Z,7.97
2023-02-11T20:52:53.926Z,7.95
2023-02-11T20:54:55.410Z,7.92
2023-02-11T20:56:58.201Z,7.91
2023-02-11T20:59:02.034Z,7.90
2023-02-11T21:01:13.987Z,7.87
2023-02-11T21:03:15.506Z,7.85
2023-02-11T21:05:17.159Z,7.82
2023-02-11T21:07:18.645Z,7.81
2023-02-11T21:09:23.911Z,7.79
2023-02-11T21:11:25.411Z,7.77
2023-02-11T21:13:27.328Z,7.74
2023-02-11T21:15:29.811Z,7.75
2023-02-11T21:17:32.230Z,7.74
2023-02-11T21:19:33.713Z,7.71
2023-02-11T21:21:36.912Z,7.69
2023-02-11T21:23:39.764Z,7.70
2023-02-11T21:25:41.434Z,7.68
2023-02-11T21:27:42.946Z,7.69
2023-02-11T21:29:53.795Z,7.67
2023-02-11T21:31:56.288Z,7.66
2023-02-11T21:33:59.425Z,7.66
2023-02-11T21:36:03.778Z,7.65
2023-02-11T21:38:05.241Z,7.65
2023-02-11T21:40:07.502Z,7.64
2023-02-11T21:42:09.312Z,7.64
2023-02-11T21:44:10.858Z,7.64
2023-02-11T21:46:15.141Z,7.62
2023-02-11T21:48:17.887Z,7.62
2023-02-11T21:50:19.393Z,7.62
2023-02-11T21:52:21.187Z,7.61
2023-02-11T21:54:25.722Z,7.59
2023-02-11T21:56:28.170Z,7.60
2023-02-11T21:58:29.784Z,7.60
2023-02-11T22:00:31.903Z,7.60
2023-02-11T22:02:34.014Z,7.59
2023-02-11T22:04:35.627Z,7.59
2023-02-11T22:06:37.160Z,7.58
2023-02-11T22:08:39.799Z,7.57
2023-02-11T22:10:41.468Z,7.58
2023-02-11T22:12:42.958Z,7.57
2023-02-11T22:14:44.522Z,7.56
2023-02-11T22:16:46.783Z,7.55
2023-02-11T22:18:48.470Z,7.57
2023-02-11T22:21:07.430Z,7.56
2023-02-11T22:23:08.896Z,7.56
2023-02-11T22:25:10.526Z,7.57
2023-02-11T22:27:13.222Z,7.56
2023-02-11T22:29:14.686Z,7.55
2023-02-11T22:31:21.955Z,7.56
2023-02-11T22:33:24.887Z,7.54
2023-02-11T22:35:26.363Z,7.54
2023-02-11T22:37:27.834Z,7.54
2023-02-11T22:39:29.657Z,7.53
2023-02-11T22:41:31.840Z,7.53
2023-02-11T22:43:33.560Z,7.52
2023-02-11T22:45:35.133Z,7.52
2023-02-11T22:47:37.562Z,7.50
2023-02-11T22:49:40.790Z,7.50
2023-02-11T22:51:42.327Z,7.48
2023-02-11T22:53:44.413Z,7.49
2023-02-11T22:55:45.954Z,7.48
2023-02-11T22:57:47.408Z,7.49
2023-02-11T22:59:48.924Z,7.48
2023-02-11T23:01:50.577Z,7.46
2023-02-11T23:03:52.205Z,7.47
2023-02-11T23:05:54.354Z,7.47
2023-02-11T23:07:56.011Z,7.48
2023-02-11T23:09:57.459Z,7.47
2023-02-11T23:11:58.985Z,7.46
2023-02-11T23:14:02.056Z,7.46
2023-02-11T23:16:06.131Z,7.46
2023-02-11T23:18:08.763Z,7.45
2023-02-11T23:20:10.821Z,7.44
2023-02-11T23:22:12.377Z,7.45
2023-02-11T23:24:14.973Z,7.44
2023-02-11T23:26:18.436Z,7.44
2023-02-11T23:28:20.042Z,7.43
2023-02-11T23:30:22.086Z,7.42
2023-02-11T23:32:23.633Z,7.41
2023-02-11T23:34:25.606Z,7.42
2023-02-11T23:36:27.941Z,7.41
2023-02-11T23:38:29.425Z,7.40
2023-02-11T23:40:31.234Z,7.39
2023-02-11T23:42:32.710Z,7.39
2023-02-11T23:44:34.479Z,7.39
2023-02-11T23:46:36.213Z,7.39
2023-02-11T23:48:37.945Z,7.38
2023-02-11T23:50:39.935Z,7.38
2023-02-11T23:52:41.793Z,7.38
2023-02-11T23:54:43.421Z,7.38
2023-02-11T23:56:44.930Z,7.38
2023-02-11T23:58:50.515Z,7.38
